Barkam, China
Current Conditions -  °F | °C
As of 2:00 AM on Tuesday 21 Oct 2014 (Local Time) from ZUUU Reporting Station
Haze Haze  
Wind Chill: 66°   Ceiling: Unl
Heat Index: 66°   Visibility: 2.1mi
Dew Point: 59°   Wind: 2mph
Humidity: 78%   Direction: NA
Pressure: 30.15"   Gusts: NA
Location:  31.9°N, 102.23°E
Report Text: ZUUU 201800Z VRB01MPS 3500 BR SCT040 19/15 Q1021 NOSIG
Loading
Personal Weather Stations






























Interactive Weather Map
Tropical Storm Tracking
New forecast layout! Learn more

10-Day Weather Forecast

Advertisements
Track Severe Weather on mobile